Aviation Digital Data Service (ADDS)

Output produced by METARs form (0013 UTC 21 January 2019)
found at http://www.aviationweather.gov/metar/data/
 
Forecast for: KHRL (HARLINGEN , TX, US)
Text: KHRL 202327Z 2100/2124 08009KT P6SM SKC
Forecast period: 0000 to 1700 UTC 21 January 2019
Forecast type: FROM: standard forecast or significant change
Winds: from the E (80 degrees) at 10 MPH (9 knots; 4.6 m/s)
Visibility: 6 or more miles 10+ km)
Clouds: clear skies
Weather: no significant weather forecast for this period
Text: FM211700 17015G21KT P6SM SKC
Forecast period: 1700 UTC 21 January 2019 to 0000 UTC 22 January 2019
Forecast type: FROM: standard forecast or significant change
Winds: from the S (170 degrees) at 17 MPH (15 knots; 7.7 m/s)
gusting to 24 MPH (21 knots; 10.8 m/s)
Visibility: 6 or more miles 10+ km)
Clouds: clear skies
Weather: no significant weather forecast for this period